Time;durP1;ratioP1;P1;durP2;ratioP2;P2;SDS_P1;SDS_P2;PMS_P1;PMS_P2;Temp;Humidity;BMP_temperature;BMP_pressure;BME280_temperature;BME280_humidity;BME280_pressure;Samples;Min_cycle;Max_cycle;Signal;HPM_P1;HPM_P2
2023/09/13 00:00:27;;;;;;;40.47;29.08;;;19.00;99.90;;;;;;5093014;28;20654;-72
2023/09/13 00:02:53;;;;;;;38.87;28.67;;;19.00;99.90;;;;;;5093075;28;20682;-72
2023/09/13 00:05:18;;;;;;;43.17;28.47;;;19.00;99.90;;;;;;5093218;28;20255;-73
2023/09/13 00:07:44;;;;;;;38.83;28.88;;;19.00;99.90;;;;;;5093350;28;20785;-73
2023/09/13 00:10:09;;;;;;;39.17;28.00;;;18.90;99.90;;;;;;5092895;28;20171;-73
2023/09/13 00:12:35;;;;;;;42.05;28.38;;;18.90;99.90;;;;;;5093271;28;20453;-72
2023/09/13 00:15:01;;;;;;;46.10;28.88;;;18.90;99.90;;;;;;5093030;28;20179;-72
2023/09/13 00:17:27;;;;;;;42.58;28.33;;;18.90;99.90;;;;;;5093060;28;20269;-73
2023/09/13 00:19:56;;;;;;;42.35;28.80;;;18.90;99.90;;;;;;5092766;28;20720;-73
2023/09/13 00:22:22;;;;;;;41.28;29.42;;;19.00;99.90;;;;;;5092806;28;20172;-73
2023/09/13 00:24:47;;;;;;;48.72;30.45;;;19.00;99.90;;;;;;5093174;28;20274;-73
2023/09/13 00:27:13;;;;;;;42.30;28.15;;;19.00;99.90;;;;;;5095558;28;20207;-73
2023/09/13 00:29:39;;;;;;;41.92;29.38;;;19.00;99.90;;;;;;5096942;28;20642;-72
2023/09/13 00:32:05;;;;;;;46.05;29.52;;;19.00;99.90;;;;;;5096933;28;20290;-72
2023/09/13 00:34:31;;;;;;;42.15;29.42;;;19.00;99.90;;;;;;5096928;28;20178;-73
2023/09/13 00:36:57;;;;;;;48.92;30.73;;;18.90;99.90;;;;;;5096464;28;20168;-71
2023/09/13 00:39:22;;;;;;;47.65;31.55;;;18.90;99.90;;;;;;5096674;28;20160;-71
2023/09/13 00:41:48;;;;;;;48.55;31.20;;;19.00;99.90;;;;;;5097012;28;20616;-73
2023/09/13 00:44:14;;;;;;;53.33;33.55;;;19.00;99.90;;;;;;5096585;28;20176;-73
2023/09/13 00:46:40;;;;;;;46.03;32.17;;;18.90;99.90;;;;;;5096771;28;20183;-72
2023/09/13 00:49:06;;;;;;;54.55;33.28;;;18.90;99.90;;;;;;5096696;28;20168;-73
2023/09/13 00:51:33;;;;;;;49.22;32.97;;;18.90;99.90;;;;;;5096492;28;20207;-72
2023/09/13 00:54:01;;;;;;;55.55;34.25;;;18.90;99.90;;;;;;5096557;28;20168;-72
2023/09/13 00:56:27;;;;;;;48.67;32.83;;;18.80;99.90;;;;;;5096274;28;20172;-73
2023/09/13 00:58:53;;;;;;;53.40;33.75;;;18.70;99.90;;;;;;5096351;28;20168;-73
2023/09/13 01:01:20;;;;;;;47.33;33.72;;;18.70;99.90;;;;;;5096586;28;20160;-73
2023/09/13 01:03:46;;;;;;;51.15;32.95;;;18.60;99.90;;;;;;5096312;28;20164;-72
2023/09/13 01:06:13;;;;;;;51.75;32.00;;;18.60;99.90;;;;;;5096024;28;20178;-73
2023/09/13 01:08:42;;;;;;;51.60;32.38;;;18.60;99.90;;;;;;5096162;28;20164;-72
2023/09/13 01:11:08;;;;;;;48.75;31.33;;;18.60;99.90;;;;;;5096002;28;20205;-72
2023/09/13 01:13:34;;;;;;;50.50;32.50;;;18.70;99.90;;;;;;5096333;28;20184;-72
2023/09/13 01:16:09;;;;;;;45.17;30.65;;;18.70;99.90;;;;;;5096091;28;20251;-72
2023/09/13 01:19:00;;;;;;;42.70;29.23;;;18.70;99.90;;;;;;5095818;28;20322;-72
2023/09/13 01:21:34;;;;;;;43.63;29.27;;;18.80;99.90;;;;;;5095811;28;20654;-72
2023/09/13 01:24:03;;;;;;;36.60;28.15;;;18.80;99.90;;;;;;5096115;28;20227;-72
2023/09/13 01:27:13;;;;;;;38.45;28.00;;;18.80;99.90;;;;;;5095810;28;20172;-72
2023/09/13 01:29:40;;;;;;;44.33;28.90;;;18.80;99.90;;;;;;4997336;28;20175;-71
2023/09/13 01:32:06;;;;;;;45.65;29.90;;;18.90;99.90;;;;;;5078945;28;20243;-71
2023/09/13 01:34:31;;;;;;;41.83;28.98;;;18.90;99.90;;;;;;5095959;28;20253;-71
2023/09/13 01:36:57;;;;;;;39.53;29.33;;;18.90;99.90;;;;;;5095471;28;20719;-72
2023/09/13 01:39:23;;;;;;;42.55;29.20;;;18.90;99.90;;;;;;5094643;28;20615;-71
2023/09/13 01:42:05;;;;;;;47.10;29.58;;;18.90;99.90;;;;;;5095647;28;20175;-71
2023/09/13 01:44:31;;;;;;;47.03;30.80;;;18.90;99.90;;;;;;5095347;28;20160;-71
2023/09/13 01:46:59;;;;;;;44.90;29.27;;;18.80;99.90;;;;;;5095490;28;20636;-71
2023/09/13 01:49:27;;;;;;;43.22;30.98;;;18.70;99.90;;;;;;5094997;28;20168;-72
2023/09/13 01:51:53;;;;;;;45.58;32.15;;;18.70;99.90;;;;;;5095486;28;20231;-71
2023/09/13 01:54:19;;;;;;;47.53;32.22;;;18.70;99.90;;;;;;5095432;28;20174;-71
2023/09/13 01:56:45;;;;;;;46.83;31.13;;;18.70;99.90;;;;;;5095431;28;20255;-71
2023/09/13 01:59:10;;;;;;;46.05;32.50;;;18.70;99.90;;;;;;5095652;28;20168;-72
2023/09/13 02:01:36;;;;;;;45.55;32.42;;;18.60;99.90;;;;;;5093876;28;20172;-71
2023/09/13 02:04:04;;;;;;;48.30;31.83;;;18.60;99.90;;;;;;5094981;28;20251;-73
2023/09/13 02:06:29;;;;;;;44.45;31.75;;;18.60;99.90;;;;;;5095256;28;20171;-72
2023/09/13 02:08:55;;;;;;;46.15;31.13;;;18.60;99.90;;;;;;5094957;28;20175;-72
2023/09/13 02:11:21;;;;;;;45.17;31.42;;;18.70;99.90;;;;;;5095095;28;20238;-72
2023/09/13 02:13:46;;;;;;;47.13;30.95;;;18.70;99.90;;;;;;5094641;28;20221;-72
2023/09/13 02:16:12;;;;;;;53.67;32.03;;;18.60;99.90;;;;;;5095143;28;20254;-72
2023/09/13 02:18:38;;;;;;;44.65;30.25;;;18.60;99.90;;;;;;5094286;28;20216;-72
2023/09/13 02:21:04;;;;;;;49.33;30.98;;;18.60;99.90;;;;;;5094862;28;20164;-72
2023/09/13 02:23:30;;;;;;;44.20;30.13;;;18.60;99.90;;;;;;5095022;28;20171;-72
2023/09/13 02:25:55;;;;;;;45.55;29.85;;;18.60;99.90;;;;;;5094842;28;20225;-72
2023/09/13 02:28:21;;;;;;;44.03;29.77;;;18.70;99.90;;;;;;5094367;28;20192;-72
2023/09/13 02:30:47;;;;;;;44.30;28.95;;;18.70;99.90;;;;;;5094532;28;20643;-72
2023/09/13 02:33:13;;;;;;;45.10;29.15;;;18.70;99.90;;;;;;5094245;28;20199;-72
2023/09/13 02:35:39;;;;;;;45.08;29.70;;;18.70;99.90;;;;;;5094540;28;20168;-72
2023/09/13 02:38:04;;;;;;;45.78;28.98;;;18.70;99.90;;;;;;5094586;28;20175;-72
2023/09/13 02:40:30;;;;;;;45.88;28.58;;;18.70;99.90;;;;;;5094407;28;20210;-72
2023/09/13 02:42:55;;;;;;;46.35;29.20;;;18.60;99.90;;;;;;5094502;28;20187;-72
2023/09/13 02:45:21;;;;;;;41.15;26.67;;;18.70;99.90;;;;;;5094269;28;20186;-72
2023/09/13 02:47:47;;;;;;;43.55;26.85;;;18.60;99.90;;;;;;5094241;28;20183;-73
2023/09/13 02:50:12;;;;;;;42.55;27.33;;;18.50;99.90;;;;;;5094137;28;20176;-73
2023/09/13 02:52:38;;;;;;;39.40;26.35;;;18.40;99.90;;;;;;5094061;28;20210;-72
2023/09/13 02:55:05;;;;;;;41.10;27.15;;;18.40;99.90;;;;;;5094125;28;20285;-71
2023/09/13 02:57:31;;;;;;;40.17;26.83;;;18.30;99.90;;;;;;5093981;28;20258;-72
2023/09/13 02:59:57;;;;;;;42.30;27.67;;;18.30;99.90;;;;;;5094116;28;20249;-73
2023/09/13 03:02:23;;;;;;;40.45;26.23;;;18.30;99.90;;;;;;5093665;28;20689;-72
2023/09/13 03:04:53;;;;;;;45.47;28.63;;;18.30;99.90;;;;;;5094178;28;20541;-72
2023/09/13 03:07:19;;;;;;;42.08;28.45;;;18.30;99.90;;;;;;5094150;28;20229;-72
2023/09/13 03:09:45;;;;;;;44.53;29.10;;;18.30;99.90;;;;;;5093922;28;20251;-72
2023/09/13 03:12:12;;;;;;;47.65;29.83;;;18.30;99.90;;;;;;5094014;28;20237;-72
2023/09/13 03:14:38;;;;;;;47.88;30.27;;;18.20;99.90;;;;;;5093561;28;20171;-71
2023/09/13 03:17:03;;;;;;;46.63;29.85;;;18.20;99.90;;;;;;5093129;28;20172;-71
2023/09/13 03:19:30;;;;;;;48.17;30.10;;;18.20;99.90;;;;;;5093133;28;20227;-72
2023/09/13 03:21:56;;;;;;;45.80;29.27;;;18.20;99.90;;;;;;5093443;28;20168;-71
2023/09/13 03:24:22;;;;;;;47.65;29.85;;;18.20;99.90;;;;;;5093729;28;20639;-71
2023/09/13 03:26:47;;;;;;;48.33;30.92;;;18.20;99.90;;;;;;5093657;28;20179;-72
2023/09/13 03:29:13;;;;;;;52.28;29.58;;;18.20;99.90;;;;;;5093327;28;20658;-71
2023/09/13 03:31:39;;;;;;;46.13;29.75;;;18.30;99.90;;;;;;5093095;28;20290;-71
2023/09/13 03:34:04;;;;;;;46.47;29.90;;;18.30;99.90;;;;;;5093406;28;20175;-72
2023/09/13 03:36:30;;;;;;;49.42;30.20;;;18.30;99.90;;;;;;5093118;28;20267;-72
2023/09/13 03:38:56;;;;;;;47.42;30.67;;;18.30;99.90;;;;;;5093250;28;20176;-73
2023/09/13 03:41:23;;;;;;;47.40;29.80;;;18.30;99.90;;;;;;5093131;28;20172;-72
2023/09/13 03:43:49;;;;;;;43.55;27.67;;;18.30;99.90;;;;;;5092368;28;20210;-72
2023/09/13 03:46:15;;;;;;;44.50;28.33;;;18.30;99.90;;;;;;5092821;28;20206;-72
2023/09/13 03:48:41;;;;;;;43.67;27.95;;;18.30;99.90;;;;;;5093457;28;20176;-72
2023/09/13 03:51:07;;;;;;;45.38;27.85;;;18.40;99.90;;;;;;5092851;28;20217;-72
2023/09/13 03:53:34;;;;;;;43.80;26.88;;;18.40;99.90;;;;;;5092893;28;20243;-72
2023/09/13 03:56:00;;;;;;;46.35;28.20;;;18.30;99.90;;;;;;5093197;28;20164;-72
2023/09/13 03:58:26;;;;;;;42.20;27.00;;;18.40;99.90;;;;;;5092994;28;20168;-72
2023/09/13 04:00:53;;;;;;;47.35;28.45;;;18.50;99.90;;;;;;5093284;28;20286;-70
2023/09/13 04:03:20;;;;;;;42.83;28.85;;;18.60;99.90;;;;;;5097161;28;20704;-71
2023/09/13 04:05:46;;;;;;;40.67;27.17;;;18.60;99.90;;;;;;5097117;28;20277;-72
2023/09/13 04:08:11;;;;;;;46.20;27.85;;;18.50;99.90;;;;;;5097114;28;20221;-72
2023/09/13 04:10:37;;;;;;;42.25;28.33;;;18.60;99.90;;;;;;5096839;28;20253;-72
2023/09/13 04:13:03;;;;;;;40.88;26.90;;;18.60;99.90;;;;;;5096843;28;20213;-72
2023/09/13 04:15:29;;;;;;;41.88;29.10;;;18.60;99.90;;;;;;5096525;28;20168;-72
2023/09/13 04:17:55;;;;;;;43.42;29.40;;;18.70;99.90;;;;;;5096676;28;20217;-72
2023/09/13 04:20:21;;;;;;;45.17;29.52;;;18.60;99.90;;;;;;5096561;28;20220;-72
2023/09/13 04:22:47;;;;;;;44.72;29.48;;;18.60;99.90;;;;;;5096466;28;20179;-72
2023/09/13 04:25:12;;;;;;;42.60;28.13;;;18.70;99.90;;;;;;5096918;28;20192;-72
2023/09/13 04:27:41;;;;;;;45.13;29.40;;;18.60;99.90;;;;;;5096434;28;20205;-72
2023/09/13 04:30:07;;;;;;;41.72;28.85;;;18.60;99.90;;;;;;5096058;28;20179;-72
2023/09/13 04:32:34;;;;;;;42.15;28.65;;;18.60;99.90;;;;;;5096284;28;20196;-72
2023/09/13 04:35:00;;;;;;;43.28;29.00;;;18.60;99.90;;;;;;5096385;28;20172;-72
2023/09/13 04:37:26;;;;;;;41.70;28.45;;;18.70;99.90;;;;;;5096403;28;20246;-72
2023/09/13 04:39:51;;;;;;;42.15;28.45;;;18.70;99.90;;;;;;5096618;28;20183;-72
2023/09/13 04:42:17;;;;;;;41.38;28.02;;;18.60;99.90;;;;;;5096325;28;20164;-72
2023/09/13 04:44:42;;;;;;;42.45;27.83;;;18.60;99.90;;;;;;5095897;28;20249;-72
2023/09/13 04:47:08;;;;;;;44.20;27.55;;;18.70;99.90;;;;;;5096281;28;20179;-72
2023/09/13 04:49:36;;;;;;;37.50;27.88;;;18.60;99.90;;;;;;5095792;28;20172;-72
2023/09/13 04:52:02;;;;;;;41.03;29.48;;;18.60;99.90;;;;;;5094324;28;20237;-72
2023/09/13 04:54:29;;;;;;;39.08;27.55;;;18.70;99.90;;;;;;5096088;28;20179;-72
2023/09/13 04:56:55;;;;;;;41.95;27.88;;;18.60;99.90;;;;;;5096155;28;20222;-72
2023/09/13 04:59:25;;;;;;;36.53;26.70;;;18.60;99.90;;;;;;5095383;28;20266;-72
2023/09/13 05:01:51;;;;;;;40.15;27.95;;;18.50;99.90;;;;;;5095582;28;20209;-72
2023/09/13 05:04:16;;;;;;;39.22;28.35;;;18.60;99.90;;;;;;5096069;28;20206;-72
2023/09/13 05:06:42;;;;;;;39.90;28.15;;;18.60;99.90;;;;;;5095708;28;20171;-73
2023/09/13 05:09:07;;;;;;;41.22;28.58;;;18.60;99.90;;;;;;5095736;28;20164;-72
2023/09/13 05:11:33;;;;;;;41.25;29.42;;;18.60;99.90;;;;;;5095426;28;20291;-72
2023/09/13 05:14:11;;;;;;;48.85;28.70;;;18.60;99.90;;;;;;5094814;28;20573;-72
2023/09/13 05:16:37;;;;;;;39.55;28.55;;;18.60;99.90;;;;;;5094991;28;20175;-72
2023/09/13 05:19:03;;;;;;;48.13;29.50;;;18.70;99.90;;;;;;5094669;28;20596;-72
2023/09/13 05:21:29;;;;;;;42.58;29.65;;;18.70;99.90;;;;;;5095478;28;20667;-72
2023/09/13 05:23:54;;;;;;;40.40;29.98;;;18.70;99.90;;;;;;5095224;28;20176;-72
2023/09/13 05:26:20;;;;;;;43.60;29.33;;;18.70;99.90;;;;;;5095765;28;20175;-72
2023/09/13 05:28:45;;;;;;;46.60;31.33;;;18.70;99.90;;;;;;5094413;28;20294;-71
2023/09/13 05:31:11;;;;;;;45.85;30.50;;;18.70;99.90;;;;;;5094926;28;20246;-73
2023/09/13 05:33:37;;;;;;;45.33;31.15;;;18.80;99.90;;;;;;5093173;28;20176;-72
2023/09/13 05:36:13;;;;;;;44.90;30.80;;;18.90;99.90;;;;;;5094686;28;20274;-72
2023/09/13 05:38:39;;;;;;;46.42;31.30;;;19.00;99.90;;;;;;5094085;28;20646;-73
2023/09/13 05:41:08;;;;;;;41.17;30.00;;;19.00;99.90;;;;;;5095217;28;20180;-72
2023/09/13 05:43:43;;;;;;;42.70;30.63;;;18.90;99.90;;;;;;5094234;28;20178;-72
2023/09/13 05:46:09;;;;;;;48.15;33.20;;;18.90;99.90;;;;;;5094431;28;20631;-73
2023/09/13 05:48:36;;;;;;;48.42;33.20;;;19.00;99.90;;;;;;5094665;28;20170;-71
2023/09/13 05:51:03;;;;;;;48.15;31.83;;;19.00;99.90;;;;;;5093968;28;20198;-73
2023/09/13 05:53:30;;;;;;;48.65;33.47;;;19.00;99.90;;;;;;5094856;28;20207;-72
2023/09/13 05:55:56;;;;;;;53.35;34.38;;;19.00;99.90;;;;;;5094219;28;20164;-72
2023/09/13 05:58:22;;;;;;;55.80;35.38;;;19.00;99.90;;;;;;5094582;28;20264;-72
2023/09/13 06:00:49;;;;;;;53.95;35.80;;;19.00;99.90;;;;;;5093892;28;20631;-72
2023/09/13 06:03:19;;;;;;;51.45;34.88;;;19.10;99.90;;;;;;5094109;28;20167;-73
2023/09/13 06:05:51;;;;;;;50.95;34.25;;;19.00;99.90;;;;;;5093666;28;20160;-72
2023/09/13 06:08:17;;;;;;;56.05;35.78;;;19.10;99.90;;;;;;5092102;28;20690;-72
2023/09/13 06:10:45;;;;;;;48.05;31.73;;;19.10;99.90;;;;;;5093737;28;20172;-71
2023/09/13 06:13:11;;;;;;;48.58;33.47;;;19.20;99.90;;;;;;5094078;28;20215;-72
2023/09/13 06:15:37;;;;;;;54.55;32.30;;;19.10;99.90;;;;;;5093882;28;20537;-71
2023/09/13 06:18:03;;;;;;;50.05;32.55;;;19.10;99.90;;;;;;5093398;28;20172;-72
2023/09/13 06:20:29;;;;;;;44.53;31.67;;;19.10;99.90;;;;;;5093075;28;20223;-71
2023/09/13 06:22:55;;;;;;;45.25;30.67;;;19.20;99.90;;;;;;5092761;28;20171;-72
2023/09/13 06:25:20;;;;;;;40.47;29.35;;;19.30;99.90;;;;;;5092491;28;20179;-73
2023/09/13 06:27:46;;;;;;;43.55;30.40;;;19.30;99.90;;;;;;5092874;28;20218;-72
2023/09/13 06:30:15;;;;;;;40.17;28.55;;;19.40;99.90;;;;;;5093461;28;20176;-73
2023/09/13 06:32:41;;;;;;;38.70;27.98;;;19.40;99.90;;;;;;5092013;28;20251;-73
2023/09/13 06:35:11;;;;;;;44.05;28.27;;;19.40;99.90;;;;;;5093958;28;20331;-71
2023/09/13 06:37:36;;;;;;;38.45;26.55;;;19.40;99.90;;;;;;5093597;28;20176;-72
2023/09/13 06:40:03;;;;;;;39.35;27.00;;;19.40;99.90;;;;;;5092672;28;20688;-72
2023/09/13 06:42:29;;;;;;;36.85;26.63;;;19.40;99.90;;;;;;5093009;28;20255;-72
2023/09/13 06:44:54;;;;;;;37.03;26.92;;;19.30;99.90;;;;;;5093370;28;20248;-72
2023/09/13 06:47:20;;;;;;;34.30;24.92;;;19.40;99.90;;;;;;5093082;28;20202;-72
2023/09/13 06:49:46;;;;;;;33.47;25.95;;;19.50;99.90;;;;;;5093038;28;20199;-71
2023/09/13 06:52:11;;;;;;;29.48;23.10;;;19.60;99.90;;;;;;5091994;28;20301;-72
2023/09/13 06:54:37;;;;;;;28.90;21.27;;;19.60;99.90;;;;;;5092819;28;20533;-72
2023/09/13 06:57:05;;;;;;;26.80;19.50;;;19.50;99.90;;;;;;5093073;28;20183;-71
2023/09/13 06:59:32;;;;;;;27.17;18.48;;;19.60;99.90;;;;;;5093417;28;20575;-73
2023/09/13 07:01:58;;;;;;;21.73;16.83;;;19.70;99.90;;;;;;5093064;28;20635;-72
2023/09/13 07:04:23;;;;;;;22.17;16.75;;;19.80;99.90;;;;;;5093420;28;20281;-73
2023/09/13 07:06:49;;;;;;;22.58;16.33;;;19.70;99.90;;;;;;5092184;28;20561;-73
2023/09/13 07:09:14;;;;;;;23.88;16.33;;;19.80;99.90;;;;;;5091388;28;20634;-73
2023/09/13 07:11:40;;;;;;;25.02;16.95;;;19.80;99.90;;;;;;5091868;28;20686;-73
2023/09/13 07:14:06;;;;;;;22.73;15.27;;;19.90;99.90;;;;;;5092674;28;20216;-75
2023/09/13 07:16:31;;;;;;;17.88;13.93;;;20.00;99.90;;;;;;5092352;28;20167;-73
2023/09/13 07:18:57;;;;;;;17.35;12.95;;;20.20;99.90;;;;;;5092402;28;20223;-73
2023/09/13 07:21:22;;;;;;;17.25;13.45;;;20.20;99.90;;;;;;5090365;28;20198;-73
2023/09/13 07:23:48;;;;;;;15.45;13.38;;;20.20;99.90;;;;;;5091901;28;20168;-73
2023/09/13 07:26:14;;;;;;;19.80;13.32;;;20.30;99.90;;;;;;5093072;28;20521;-73
2023/09/13 07:28:39;;;;;;;17.55;13.15;;;20.40;99.90;;;;;;5092810;28;20566;-73
2023/09/13 07:31:07;;;;;;;16.75;12.88;;;20.50;99.90;;;;;;5091506;28;20680;-74
2023/09/13 07:33:33;;;;;;;18.30;12.32;;;20.40;99.90;;;;;;5092503;28;20215;-73
2023/09/13 07:35:58;;;;;;;16.63;12.40;;;20.70;99.90;;;;;;5091617;28;20617;-74
2023/09/13 07:38:24;;;;;;;13.88;10.52;;;20.80;99.90;;;;;;5092208;28;20202;-75
2023/09/13 07:40:49;;;;;;;13.00;9.90;;;21.80;99.90;;;;;;5092866;28;20239;-77
2023/09/13 07:43:16;;;;;;;13.38;8.63;;;23.70;55.00;;;;;;5092806;28;20168;-77
2023/09/13 07:45:41;;;;;;;9.27;8.05;;;25.50;1.00;;;;;;5091582;28;20531;-77
2023/09/13 07:48:07;;;;;;;10.65;8.98;;;26.00;1.00;;;;;;5092556;28;20607;-77
2023/09/13 07:50:40;;;;;;;11.77;8.52;;;26.00;1.00;;;;;;5090983;28;20171;-75
2023/09/13 07:53:06;;;;;;;11.48;8.18;;;26.30;1.00;;;;;;5092310;28;20290;-75
2023/09/13 07:55:32;;;;;;;12.50;7.95;;;26.30;1.00;;;;;;5091897;28;20168;-74
2023/09/13 07:57:57;;;;;;;10.82;7.90;;;26.20;1.00;;;;;;5092357;28;20183;-75
2023/09/13 08:00:23;;;;;;;9.13;7.38;;;26.80;1.00;;;;;;5091878;28;20164;-78
2023/09/13 08:02:49;;;;;;;10.15;7.03;;;27.60;1.00;;;;;;5092497;28;20505;-74
2023/09/13 08:05:16;;;;;;;9.57;6.75;;;27.40;1.00;;;;;;5092248;28;20168;-76
2023/09/13 08:07:44;;;;;;;8.93;6.32;;;27.20;1.00;;;;;;5092333;28;20191;-75
2023/09/13 08:10:09;;;;;;;9.55;6.07;;;26.90;1.00;;;;;;5092145;28;20263;-75
2023/09/13 08:12:35;;;;;;;8.73;5.40;;;26.70;1.00;;;;;;5092178;28;20211;-75
2023/09/13 08:15:01;;;;;;;8.48;5.00;;;26.20;1.00;;;;;;5092310;28;20174;-75
2023/09/13 08:17:26;;;;;;;10.30;5.72;;;25.90;1.00;;;;;;5092462;28;20635;-76
2023/09/13 08:19:52;;;;;;;8.55;4.85;;;25.50;1.00;;;;;;5092233;28;20682;-75
2023/09/13 08:22:19;;;;;;;9.55;5.13;;;25.20;1.00;;;;;;5092234;28;20676;-74
2023/09/13 08:24:44;;;;;;;12.05;5.15;;;24.60;1.00;;;;;;5092283;28;20168;-74
2023/09/13 08:27:10;;;;;;;8.68;4.45;;;24.30;1.00;;;;;;5092088;28;20195;-75
2023/09/13 08:29:35;;;;;;;9.60;4.63;;;24.10;1.00;;;;;;5092321;28;20172;-74
2023/09/13 08:32:01;;;;;;;10.63;5.75;;;23.90;1.70;;;;;;5091988;28;20528;-75
2023/09/13 08:34:26;;;;;;;10.27;5.30;;;23.50;15.40;;;;;;5090368;28;20584;-75
2023/09/13 08:36:55;;;;;;;8.77;4.80;;;23.10;24.00;;;;;;5090835;28;20262;-74
2023/09/13 08:39:20;;;;;;;12.43;6.68;;;22.70;39.00;;;;;;5090692;28;20190;-75
2023/09/13 08:41:50;;;;;;;10.07;6.60;;;22.70;37.80;;;;;;5092113;28;20172;-74
2023/09/13 08:44:20;;;;;;;9.38;7.18;;;22.60;42.10;;;;;;5090607;28;20164;-73
2023/09/13 08:46:56;;;;;;;13.25;7.90;;;22.90;41.30;;;;;;5092108;28;20175;-75
2023/09/13 08:49:23;;;;;;;13.77;9.07;;;23.20;31.50;;;;;;5095123;28;20221;-74
2023/09/13 08:51:50;;;;;;;11.00;7.45;;;23.50;26.60;;;;;;5095566;28;20662;-76
2023/09/13 08:54:16;;;;;;;14.05;8.13;;;23.90;17.00;;;;;;5095642;28;20176;-75
2023/09/13 08:56:43;;;;;;;15.52;7.85;;;24.10;8.20;;;;;;5095941;28;20179;-77
2023/09/13 08:59:09;;;;;;;14.32;7.75;;;24.30;5.90;;;;;;5095745;28;20199;-74
2023/09/13 09:01:38;;;;;;;17.25;7.10;;;24.50;1.00;;;;;;5094956;28;20171;-75
2023/09/13 09:04:04;;;;;;;15.80;7.50;;;24.80;1.00;;;;;;5095353;28;20734;-76
2023/09/13 09:06:31;;;;;;;9.73;7.53;;;24.70;1.00;;;;;;5095482;28;20259;-74
2023/09/13 09:08:58;;;;;;;12.43;7.72;;;24.50;1.00;;;;;;5095389;28;20184;-75
2023/09/13 09:11:27;;;;;;;10.82;7.63;;;24.70;1.00;;;;;;5094848;28;20164;-73
2023/09/13 09:13:58;;;;;;;12.60;7.32;;;24.60;1.00;;;;;;5095244;28;20174;-73
2023/09/13 09:16:26;;;;;;;11.63;6.60;;;24.30;1.00;;;;;;5094851;28;20365;-74
2023/09/13 09:18:53;;;;;;;12.52;6.72;;;24.10;1.00;;;;;;5094523;28;20235;-73
2023/09/13 09:21:19;;;;;;;10.95;6.28;;;24.00;3.40;;;;;;5094846;28;20172;-73
2023/09/13 09:23:45;;;;;;;12.43;7.05;;;24.20;3.20;;;;;;5094886;28;20276;-75
2023/09/13 09:26:11;;;;;;;12.02;5.78;;;24.60;1.00;;;;;;5095337;28;20315;-72
2023/09/13 09:28:37;;;;;;;10.80;5.85;;;25.20;1.00;;;;;;5094996;28;20188;-73
2023/09/13 09:31:02;;;;;;;10.55;5.53;;;25.50;1.00;;;;;;5094898;28;20242;-75
2023/09/13 09:33:32;;;;;;;9.57;4.70;;;25.60;1.00;;;;;;5094954;28;20207;-74
2023/09/13 09:36:01;;;;;;;12.52;4.65;;;25.60;1.00;;;;;;5093620;28;20639;-72
2023/09/13 09:38:28;;;;;;;7.63;3.72;;;26.10;1.00;;;;;;5094582;28;20175;-76
2023/09/13 09:41:00;;;;;;;6.82;3.75;;;26.50;1.00;;;;;;5094840;28;20172;-73
2023/09/13 09:43:26;;;;;;;9.35;3.67;;;27.40;1.00;;;;;;5094827;28;20178;-75
2023/09/13 09:45:53;;;;;;;7.40;3.33;;;28.10;1.00;;;;;;5094204;28;20229;-72
2023/09/13 09:48:21;;;;;;;9.15;3.92;;;28.50;1.00;;;;;;5093958;28;20642;-74
2023/09/13 09:50:50;;;;;;;9.63;3.72;;;29.20;1.00;;;;;;5094821;28;20248;-73
2023/09/13 09:53:17;;;;;;;7.80;3.38;;;29.40;99.90;;;;;;5094545;28;20219;-74
2023/09/13 09:55:46;;;;;;;7.28;3.25;;;28.50;1.00;;;;;;5094967;28;20179;-72
2023/09/13 09:58:13;;;;;;;9.82;3.72;;;27.50;1.00;;;;;;5093769;28;20168;-75
2023/09/13 10:00:52;;;;;;;7.93;4.70;;;26.30;1.00;;;;;;5094084;28;20160;-73
2023/09/13 10:03:19;;;;;;;13.10;6.25;;;25.40;1.00;;;;;;5094326;28;20220;-74
2023/09/13 10:06:06;;;;;;;10.40;7.82;;;25.20;1.00;;;;;;5094325;28;20168;-74
2023/09/13 10:08:45;;;;;;;13.90;9.55;;;25.20;1.00;;;;;;5093969;28;20199;-73
2023/09/13 10:11:16;;;;;;;16.05;11.13;;;25.40;1.00;;;;;;5094075;28;20164;-72
2023/09/13 10:13:46;;;;;;;13.10;10.35;;;25.70;1.00;;;;;;5094161;28;20184;-74
2023/09/13 10:16:13;;;;;;;10.35;8.07;;;25.40;1.00;;;;;;5094617;28;20228;-76
2023/09/13 10:18:49;;;;;;;7.32;6.60;;;24.90;1.00;;;;;;5093782;28;20239;-76
2023/09/13 10:21:26;;;;;;;11.20;7.28;;;24.40;1.00;;;;;;5093319;28;20164;-75
2023/09/13 10:23:56;;;;;;;6.50;5.68;;;24.30;1.00;;;;;;5093827;28;20251;-74
2023/09/13 10:26:23;;;;;;;8.60;5.53;;;24.50;1.00;;;;;;5093737;28;20639;-73
2023/09/13 10:28:51;;;;;;;6.30;4.22;;;24.70;1.00;;;;;;5093552;28;20210;-73
2023/09/13 10:31:23;;;;;;;4.90;3.88;;;25.40;1.00;;;;;;5094256;28;20217;-75
2023/09/13 10:33:52;;;;;;;4.43;4.03;;;25.90;1.00;;;;;;5092726;28;20198;-75
2023/09/13 10:36:33;;;;;;;6.72;3.88;;;25.70;1.00;;;;;;5093339;28;20626;-73
2023/09/13 10:39:15;;;;;;;3.75;3.45;;;25.30;1.00;;;;;;5093260;28;20172;-75
2023/09/13 10:41:59;;;;;;;4.80;4.20;;;25.30;1.00;;;;;;5093862;28;20312;-75
2023/09/13 10:44:25;;;;;;;4.32;3.92;;;25.40;1.00;;;;;;5093715;28;20171;-73
2023/09/13 10:46:51;;;;;;;5.32;3.20;;;25.20;1.00;;;;;;5093517;28;20174;-72
2023/09/13 10:49:17;;;;;;;4.22;3.75;;;25.40;1.00;;;;;;5092876;28;20172;-73
2023/09/13 10:51:43;;;;;;;4.13;3.60;;;25.20;1.00;;;;;;5093798;28;20225;-72
2023/09/13 10:54:10;;;;;;;4.53;3.13;;;25.60;1.00;;;;;;5093590;28;20656;-73
2023/09/13 10:56:36;;;;;;;3.90;3.60;;;26.80;1.00;;;;;;5093283;28;20168;-72
2023/09/13 10:59:04;;;;;;;4.40;4.00;;;27.50;1.00;;;;;;5093386;28;20163;-73
2023/09/13 11:01:30;;;;;;;4.18;3.83;;;27.40;99.90;;;;;;5092853;28;20171;-73
2023/09/13 11:03:56;;;;;;;9.07;4.65;;;27.50;99.90;;;;;;5092832;28;20168;-73
2023/09/13 11:06:24;;;;;;;4.93;4.53;;;26.60;1.00;;;;;;5093214;28;20178;-74
2023/09/13 11:08:50;;;;;;;5.10;4.60;;;26.30;1.00;;;;;;5093150;28;20203;-74
2023/09/13 11:11:18;;;;;;;5.70;5.28;;;25.60;1.00;;;;;;5092859;28;20194;-74
2023/09/13 11:13:49;;;;;;;4.65;4.32;;;25.30;1.00;;;;;;5093145;28;20204;-74
2023/09/13 11:16:16;;;;;;;5.20;4.70;;;24.90;1.00;;;;;;5091461;28;20160;-73
2023/09/13 11:18:54;;;;;;;4.72;4.28;;;23.90;1.00;;;;;;5092913;28;20238;-74
2023/09/13 11:21:24;;;;;;;4.82;4.38;;;24.20;1.00;;;;;;5092901;28;20241;-75
2023/09/13 11:23:52;;;;;;;5.38;4.90;;;25.00;1.00;;;;;;5093184;28;20195;-72
2023/09/13 11:26:45;;;;;;;5.22;4.72;;;25.70;1.00;;;;;;5093248;28;20601;-72
2023/09/13 11:29:27;;;;;;;4.82;4.30;;;26.50;1.00;;;;;;5092021;28;20160;-74
2023/09/13 11:32:04;;;;;;;3.75;3.45;;;26.90;1.00;;;;;;5092574;28;20204;-73
2023/09/13 11:34:34;;;;;;;3.92;3.17;;;27.60;99.90;;;;;;5093381;28;20179;-74
2023/09/13 11:37:01;;;;;;;3.88;2.92;;;28.50;1.00;;;;;;5092149;28;20168;-73
2023/09/13 11:39:27;;;;;;;3.05;2.78;;;28.00;1.00;;;;;;5092187;28;20179;-74
2023/09/13 11:41:55;;;;;;;3.55;2.67;;;27.30;1.00;;;;;;5092452;28;20221;-73
2023/09/13 11:44:24;;;;;;;3.65;2.45;;;26.60;1.00;;;;;;5092137;28;20164;-73
2023/09/13 11:46:54;;;;;;;2.47;2.28;;;25.70;1.00;;;;;;5092624;28;20163;-72
2023/09/13 11:49:25;;;;;;;5.88;2.30;;;25.90;1.00;;;;;;5092080;28;20179;-72
2023/09/13 11:51:57;;;;;;;4.22;2.15;;;26.50;1.00;;;;;;5092624;28;20196;-73
2023/09/13 11:54:23;;;;;;;2.47;1.75;;;26.60;1.00;;;;;;5092291;28;20260;-72
2023/09/13 11:56:52;;;;;;;2.80;1.63;;;27.30;28.00;;;;;;5092472;28;20253;-74
2023/09/13 11:59:38;;;;;;;4.03;1.88;;;27.50;99.90;;;;;;5091804;28;20202;-73
2023/09/13 12:02:04;;;;;;;3.45;1.70;;;26.40;99.90;;;;;;5091816;28;20180;-73
2023/09/13 12:04:29;;;;;;;1.67;0.93;;;26.10;1.00;;;;;;5092708;28;20172;-73
2023/09/13 12:06:56;;;;;;;5.57;1.45;;;25.70;99.90;;;;;;5092414;28;20661;-73
2023/09/13 12:09:23;;;;;;;13.90;1.92;;;25.00;1.00;;;;;;5091914;28;20178;-72
2023/09/13 12:11:51;;;;;;;4.68;1.10;;;25.20;1.00;;;;;;5091932;28;20218;-73
2023/09/13 12:14:22;;;;;;;6.28;0.95;;;25.60;99.90;;;;;;5092175;28;20209;-73
2023/09/13 12:16:51;;;;;;;9.52;1.55;;;25.00;1.00;;;;;;5092430;28;20204;-73
2023/09/13 12:19:17;;;;;;;4.20;0.93;;;24.40;1.00;;;;;;5092246;28;20281;-73
2023/09/13 12:21:45;;;;;;;2.95;1.13;;;23.70;1.00;;;;;;5092135;28;20564;-72
2023/09/13 12:24:13;;;;;;;2.58;1.23;;;23.50;1.00;;;;;;5095943;28;20172;-72
2023/09/13 12:26:40;;;;;;;4.53;1.33;;;23.80;1.00;;;;;;5096618;28;20167;-73
2023/09/13 12:29:05;;;;;;;6.40;1.65;;;23.50;1.00;;;;;;5095453;28;20191;-72
2023/09/13 12:31:32;;;;;;;6.05;1.10;;;23.20;1.00;;;;;;5095905;28;20225;-73
2023/09/13 12:34:01;;;;;;;3.17;1.00;;;23.40;1.00;;;;;;5096442;28;20180;-73
2023/09/13 12:36:27;;;;;;;6.07;1.40;;;22.90;1.00;;;;;;5095769;28;20160;-71